sensor_id;sensor_type;location;lat;lon;timestamp;P1;durP1;ratioP1;P2;durP2;ratioP2
48647;SDS011;34437;-33.956;151.076;2022-12-17T00:02:05;2.05;;;1.10;;
48647;SDS011;34437;-33.956;151.076;2022-12-17T00:04:45;2.78;;;1.20;;
48647;SDS011;34437;-33.956;151.076;2022-12-17T00:07:26;2.40;;;1.30;;
48647;SDS011;34437;-33.956;151.076;2022-12-17T00:10:07;3.38;;;1.75;;
48647;SDS011;34437;-33.956;151.076;2022-12-17T00:12:48;3.22;;;1.42;;
48647;SDS011;34437;-33.956;151.076;2022-12-17T00:15:32;6.00;;;1.67;;
48647;SDS011;34437;-33.956;151.076;2022-12-17T00:18:13;3.10;;;1.38;;
48647;SDS011;34437;-33.956;151.076;2022-12-17T00:20:58;3.33;;;1.40;;
48647;SDS011;34437;-33.956;151.076;2022-12-17T00:23:39;3.13;;;1.52;;
48647;SDS011;34437;-33.956;151.076;2022-12-17T00:26:23;5.75;;;1.55;;
48647;SDS011;34437;-33.956;151.076;2022-12-17T00:29:03;3.45;;;1.45;;
48647;SDS011;34437;-33.956;151.076;2022-12-17T00:31:44;2.50;;;1.00;;
48647;SDS011;34437;-33.956;151.076;2022-12-17T00:39:41;4.25;;;1.50;;
48647;SDS011;34437;-33.956;151.076;2022-12-17T00:42:21;6.35;;;1.58;;
48647;SDS011;34437;-33.956;151.076;2022-12-17T00:45:02;4.90;;;1.48;;
48647;SDS011;34437;-33.956;151.076;2022-12-17T00:47:43;3.40;;;1.45;;
48647;SDS011;34437;-33.956;151.076;2022-12-17T00:50:25;6.13;;;1.88;;
48647;SDS011;34437;-33.956;151.076;2022-12-17T00:53:06;4.93;;;1.30;;
48647;SDS011;34437;-33.956;151.076;2022-12-17T00:55:47;3.72;;;1.50;;
48647;SDS011;34437;-33.956;151.076;2022-12-17T00:58:27;6.32;;;1.40;;
48647;SDS011;34437;-33.956;151.076;2022-12-17T01:01:11;7.10;;;2.13;;
48647;SDS011;34437;-33.956;151.076;2022-12-17T01:03:51;5.00;;;1.83;;
48647;SDS011;34437;-33.956;151.076;2022-12-17T01:06:32;3.92;;;1.30;;
48647;SDS011;34437;-33.956;151.076;2022-12-17T01:09:13;5.20;;;1.70;;
48647;SDS011;34437;-33.956;151.076;2022-12-17T01:11:53;6.85;;;1.80;;
48647;SDS011;34437;-33.956;151.076;2022-12-17T01:14:34;2.95;;;1.17;;
48647;SDS011;34437;-33.956;151.076;2022-12-17T01:17:15;4.85;;;1.50;;
48647;SDS011;34437;-33.956;151.076;2022-12-17T01:19:56;5.18;;;1.45;;
48647;SDS011;34437;-33.956;151.076;2022-12-17T01:22:36;4.32;;;1.42;;
48647;SDS011;34437;-33.956;151.076;2022-12-17T01:25:17;4.63;;;1.50;;
48647;SDS011;34437;-33.956;151.076;2022-12-17T01:27:57;6.65;;;2.10;;
48647;SDS011;34437;-33.956;151.076;2022-12-17T01:30:38;14.90;;;2.88;;
48647;SDS011;34437;-33.956;151.076;2022-12-17T01:33:19;5.55;;;1.83;;
48647;SDS011;34437;-33.956;151.076;2022-12-17T01:36:00;8.63;;;2.10;;
48647;SDS011;34437;-33.956;151.076;2022-12-17T01:38:40;38.20;;;4.68;;
48647;SDS011;34437;-33.956;151.076;2022-12-17T01:41:21;40.22;;;4.30;;
48647;SDS011;34437;-33.956;151.076;2022-12-17T01:49:58;8.10;;;1.40;;
48647;SDS011;34437;-33.956;151.076;2022-12-17T01:52:38;9.38;;;1.92;;
48647;SDS011;34437;-33.956;151.076;2022-12-17T01:55:19;5.07;;;1.83;;
48647;SDS011;34437;-33.956;151.076;2022-12-17T01:58:00;5.55;;;1.60;;
48647;SDS011;34437;-33.956;151.076;2022-12-17T02:00:40;4.93;;;1.80;;
48647;SDS011;34437;-33.956;151.076;2022-12-17T02:03:20;6.97;;;1.40;;
48647;SDS011;34437;-33.956;151.076;2022-12-17T02:06:45;5.55;;;1.15;;
48647;SDS011;34437;-33.956;151.076;2022-12-17T02:09:11;3.43;;;1.60;;
48647;SDS011;34437;-33.956;151.076;2022-12-17T02:14:56;4.80;;;1.47;;
48647;SDS011;34437;-33.956;151.076;2022-12-17T02:17:51;4.22;;;1.35;;
48647;SDS011;34437;-33.956;151.076;2022-12-17T02:27:00;2.78;;;1.25;;
48647;SDS011;34437;-33.956;151.076;2022-12-17T02:29:16;3.70;;;1.52;;
48647;SDS011;34437;-33.956;151.076;2022-12-17T02:31:58;3.75;;;1.42;;
48647;SDS011;34437;-33.956;151.076;2022-12-17T02:34:44;2.97;;;1.20;;
48647;SDS011;34437;-33.956;151.076;2022-12-17T02:37:25;4.00;;;1.38;;
48647;SDS011;34437;-33.956;151.076;2022-12-17T02:40:05;2.40;;;1.17;;
48647;SDS011;34437;-33.956;151.076;2022-12-17T02:42:46;4.53;;;1.35;;
48647;SDS011;34437;-33.956;151.076;2022-12-17T02:45:39;3.05;;;1.13;;
48647;SDS011;34437;-33.956;151.076;2022-12-17T02:48:19;5.32;;;1.33;;
48647;SDS011;34437;-33.956;151.076;2022-12-17T02:51:00;5.25;;;1.48;;
48647;SDS011;34437;-33.956;151.076;2022-12-17T02:53:44;3.72;;;1.10;;
48647;SDS011;34437;-33.956;151.076;2022-12-17T02:56:29;2.58;;;1.02;;
48647;SDS011;34437;-33.956;151.076;2022-12-17T02:59:09;4.63;;;1.10;;
48647;SDS011;34437;-33.956;151.076;2022-12-17T03:01:50;3.85;;;1.20;;
48647;SDS011;34437;-33.956;151.076;2022-12-17T03:04:31;3.92;;;1.35;;
48647;SDS011;34437;-33.956;151.076;2022-12-17T03:07:11;4.13;;;1.48;;
48647;SDS011;34437;-33.956;151.076;2022-12-17T03:09:52;5.32;;;1.42;;
48647;SDS011;34437;-33.956;151.076;2022-12-17T03:12:32;4.30;;;1.38;;
48647;SDS011;34437;-33.956;151.076;2022-12-17T03:15:12;4.40;;;1.48;;
48647;SDS011;34437;-33.956;151.076;2022-12-17T03:17:53;4.13;;;1.10;;
48647;SDS011;34437;-33.956;151.076;2022-12-17T03:20:34;3.08;;;1.23;;
48647;SDS011;34437;-33.956;151.076;2022-12-17T03:23:15;3.30;;;1.23;;
48647;SDS011;34437;-33.956;151.076;2022-12-17T03:25:59;4.90;;;1.50;;
48647;SDS011;34437;-33.956;151.076;2022-12-17T03:28:41;5.72;;;1.52;;
48647;SDS011;34437;-33.956;151.076;2022-12-17T03:31:21;3.47;;;1.30;;
48647;SDS011;34437;-33.956;151.076;2022-12-17T03:34:02;4.47;;;1.20;;
48647;SDS011;34437;-33.956;151.076;2022-12-17T03:36:43;3.90;;;1.40;;
48647;SDS011;34437;-33.956;151.076;2022-12-17T03:39:24;3.67;;;1.20;;
48647;SDS011;34437;-33.956;151.076;2022-12-17T03:42:04;4.45;;;1.40;;
48647;SDS011;34437;-33.956;151.076;2022-12-17T03:44:45;4.40;;;1.70;;
48647;SDS011;34437;-33.956;151.076;2022-12-17T03:47:25;5.38;;;1.75;;
48647;SDS011;34437;-33.956;151.076;2022-12-17T03:50:06;3.70;;;1.20;;
48647;SDS011;34437;-33.956;151.076;2022-12-17T03:52:47;3.70;;;1.10;;
48647;SDS011;34437;-33.956;151.076;2022-12-17T03:55:27;5.80;;;1.45;;
48647;SDS011;34437;-33.956;151.076;2022-12-17T03:58:07;3.30;;;1.25;;
48647;SDS011;34437;-33.956;151.076;2022-12-17T04:00:50;3.75;;;1.45;;
48647;SDS011;34437;-33.956;151.076;2022-12-17T04:03:30;4.90;;;1.23;;
48647;SDS011;34437;-33.956;151.076;2022-12-17T04:06:11;2.38;;;0.90;;
48647;SDS011;34437;-33.956;151.076;2022-12-17T04:08:51;3.53;;;1.38;;
48647;SDS011;34437;-33.956;151.076;2022-12-17T04:11:32;5.18;;;1.65;;
48647;SDS011;34437;-33.956;151.076;2022-12-17T04:14:15;3.53;;;1.15;;
48647;SDS011;34437;-33.956;151.076;2022-12-17T04:16:56;4.20;;;1.70;;
48647;SDS011;34437;-33.956;151.076;2022-12-17T04:19:36;3.92;;;1.25;;
48647;SDS011;34437;-33.956;151.076;2022-12-17T04:22:17;4.47;;;1.92;;
48647;SDS011;34437;-33.956;151.076;2022-12-17T04:24:58;3.05;;;1.40;;
48647;SDS011;34437;-33.956;151.076;2022-12-17T04:27:38;3.33;;;1.10;;
48647;SDS011;34437;-33.956;151.076;2022-12-17T04:30:19;4.57;;;1.35;;
48647;SDS011;34437;-33.956;151.076;2022-12-17T04:32:59;3.63;;;1.23;;
48647;SDS011;34437;-33.956;151.076;2022-12-17T04:35:41;3.60;;;1.25;;
48647;SDS011;34437;-33.956;151.076;2022-12-17T04:38:21;2.92;;;1.10;;
48647;SDS011;34437;-33.956;151.076;2022-12-17T04:41:02;4.43;;;1.40;;
48647;SDS011;34437;-33.956;151.076;2022-12-17T04:43:43;3.60;;;1.08;;
48647;SDS011;34437;-33.956;151.076;2022-12-17T04:46:23;3.55;;;1.17;;
48647;SDS011;34437;-33.956;151.076;2022-12-17T04:49:04;2.83;;;1.20;;
48647;SDS011;34437;-33.956;151.076;2022-12-17T04:51:44;2.83;;;1.38;;
48647;SDS011;34437;-33.956;151.076;2022-12-17T04:54:25;2.70;;;1.10;;
48647;SDS011;34437;-33.956;151.076;2022-12-17T04:57:06;4.53;;;1.25;;
48647;SDS011;34437;-33.956;151.076;2022-12-17T04:59:46;3.65;;;1.13;;
48647;SDS011;34437;-33.956;151.076;2022-12-17T05:02:26;5.05;;;1.30;;
48647;SDS011;34437;-33.956;151.076;2022-12-17T05:05:07;3.70;;;1.80;;
48647;SDS011;34437;-33.956;151.076;2022-12-17T05:07:51;3.47;;;1.33;;
48647;SDS011;34437;-33.956;151.076;2022-12-17T05:10:34;2.45;;;1.02;;
48647;SDS011;34437;-33.956;151.076;2022-12-17T05:13:15;3.47;;;1.17;;
48647;SDS011;34437;-33.956;151.076;2022-12-17T05:18:13;4.13;;;1.42;;
48647;SDS011;34437;-33.956;151.076;2022-12-17T05:20:53;3.38;;;1.40;;
48647;SDS011;34437;-33.956;151.076;2022-12-17T05:23:34;3.78;;;1.58;;
48647;SDS011;34437;-33.956;151.076;2022-12-17T05:26:22;4.45;;;1.80;;
48647;SDS011;34437;-33.956;151.076;2022-12-17T05:29:05;4.95;;;1.75;;
48647;SDS011;34437;-33.956;151.076;2022-12-17T05:31:47;4.78;;;1.45;;
48647;SDS011;34437;-33.956;151.076;2022-12-17T05:34:28;3.85;;;1.67;;
48647;SDS011;34437;-33.956;151.076;2022-12-17T05:37:09;3.90;;;1.20;;
48647;SDS011;34437;-33.956;151.076;2022-12-17T05:39:49;3.80;;;1.33;;
48647;SDS011;34437;-33.956;151.076;2022-12-17T05:42:30;4.50;;;1.63;;
48647;SDS011;34437;-33.956;151.076;2022-12-17T05:45:10;4.05;;;1.30;;
48647;SDS011;34437;-33.956;151.076;2022-12-17T05:47:55;2.92;;;1.40;;
48647;SDS011;34437;-33.956;151.076;2022-12-17T05:50:36;4.35;;;1.40;;
48647;SDS011;34437;-33.956;151.076;2022-12-17T05:53:16;3.42;;;1.48;;
48647;SDS011;34437;-33.956;151.076;2022-12-17T05:55:57;3.72;;;1.58;;
48647;SDS011;34437;-33.956;151.076;2022-12-17T05:58:38;3.70;;;1.52;;
48647;SDS011;34437;-33.956;151.076;2022-12-17T06:01:18;3.53;;;1.45;;
48647;SDS011;34437;-33.956;151.076;2022-12-17T06:03:58;3.50;;;1.85;;
48647;SDS011;34437;-33.956;151.076;2022-12-17T06:06:39;4.40;;;1.83;;
48647;SDS011;34437;-33.956;151.076;2022-12-17T06:09:20;4.40;;;2.13;;
48647;SDS011;34437;-33.956;151.076;2022-12-17T06:12:00;5.35;;;2.67;;
48647;SDS011;34437;-33.956;151.076;2022-12-17T06:14:41;4.93;;;2.60;;
48647;SDS011;34437;-33.956;151.076;2022-12-17T06:17:21;4.63;;;2.65;;
48647;SDS011;34437;-33.956;151.076;2022-12-17T06:20:01;4.80;;;2.30;;
48647;SDS011;34437;-33.956;151.076;2022-12-17T06:22:42;5.40;;;2.28;;
48647;SDS011;34437;-33.956;151.076;2022-12-17T06:25:25;4.35;;;1.95;;
48647;SDS011;34437;-33.956;151.076;2022-12-17T06:28:05;3.42;;;2.10;;
48647;SDS011;34437;-33.956;151.076;2022-12-17T06:30:50;4.90;;;2.00;;
48647;SDS011;34437;-33.956;151.076;2022-12-17T06:33:31;5.32;;;2.20;;
48647;SDS011;34437;-33.956;151.076;2022-12-17T06:36:12;5.45;;;1.90;;
48647;SDS011;34437;-33.956;151.076;2022-12-17T06:38:52;4.93;;;2.33;;
48647;SDS011;34437;-33.956;151.076;2022-12-17T06:41:33;4.97;;;2.33;;
48647;SDS011;34437;-33.956;151.076;2022-12-17T06:44:14;5.35;;;2.50;;
48647;SDS011;34437;-33.956;151.076;2022-12-17T06:46:54;4.85;;;2.00;;
48647;SDS011;34437;-33.956;151.076;2022-12-17T06:49:35;4.22;;;2.50;;
48647;SDS011;34437;-33.956;151.076;2022-12-17T06:52:16;5.35;;;2.33;;
48647;SDS011;34437;-33.956;151.076;2022-12-17T06:54:57;3.47;;;2.10;;
48647;SDS011;34437;-33.956;151.076;2022-12-17T06:57:37;4.43;;;1.85;;
48647;SDS011;34437;-33.956;151.076;2022-12-17T07:00:18;3.63;;;1.67;;
48647;SDS011;34437;-33.956;151.076;2022-12-17T07:02:58;5.28;;;2.00;;
48647;SDS011;34437;-33.956;151.076;2022-12-17T07:05:39;5.35;;;2.25;;
48647;SDS011;34437;-33.956;151.076;2022-12-17T07:08:21;4.45;;;1.75;;
48647;SDS011;34437;-33.956;151.076;2022-12-17T07:11:02;4.85;;;1.90;;
48647;SDS011;34437;-33.956;151.076;2022-12-17T07:13:43;4.75;;;2.20;;
48647;SDS011;34437;-33.956;151.076;2022-12-17T07:16:34;6.95;;;2.10;;
48647;SDS011;34437;-33.956;151.076;2022-12-17T07:19:15;4.25;;;1.67;;
48647;SDS011;34437;-33.956;151.076;2022-12-17T07:21:55;4.20;;;1.52;;
48647;SDS011;34437;-33.956;151.076;2022-12-17T07:24:36;3.50;;;1.80;;
48647;SDS011;34437;-33.956;151.076;2022-12-17T07:27:17;3.72;;;1.48;;
48647;SDS011;34437;-33.956;151.076;2022-12-17T07:29:57;4.70;;;1.63;;
48647;SDS011;34437;-33.956;151.076;2022-12-17T07:32:38;2.53;;;1.10;;
48647;SDS011;34437;-33.956;151.076;2022-12-17T07:35:19;3.80;;;1.70;;
48647;SDS011;34437;-33.956;151.076;2022-12-17T07:38:00;3.72;;;1.65;;
48647;SDS011;34437;-33.956;151.076;2022-12-17T07:40:41;4.03;;;1.42;;
48647;SDS011;34437;-33.956;151.076;2022-12-17T07:43:22;4.90;;;1.33;;
48647;SDS011;34437;-33.956;151.076;2022-12-17T07:46:03;4.13;;;1.70;;
48647;SDS011;34437;-33.956;151.076;2022-12-17T07:48:43;5.38;;;1.70;;
48647;SDS011;34437;-33.956;151.076;2022-12-17T07:51:24;3.67;;;1.50;;
48647;SDS011;34437;-33.956;151.076;2022-12-17T07:54:05;4.05;;;1.63;;
48647;SDS011;34437;-33.956;151.076;2022-12-17T07:56:45;4.85;;;1.83;;
48647;SDS011;34437;-33.956;151.076;2022-12-17T07:59:26;4.53;;;1.40;;
48647;SDS011;34437;-33.956;151.076;2022-12-17T08:02:08;3.45;;;1.17;;
48647;SDS011;34437;-33.956;151.076;2022-12-17T08:04:49;4.00;;;1.17;;
48647;SDS011;34437;-33.956;151.076;2022-12-17T08:07:29;3.83;;;1.55;;
48647;SDS011;34437;-33.956;151.076;2022-12-17T08:10:10;2.58;;;1.13;;
48647;SDS011;34437;-33.956;151.076;2022-12-17T08:13:01;3.42;;;1.17;;
48647;SDS011;34437;-33.956;151.076;2022-12-17T08:15:43;2.92;;;1.15;;
48647;SDS011;34437;-33.956;151.076;2022-12-17T08:18:24;4.18;;;1.70;;
48647;SDS011;34437;-33.956;151.076;2022-12-17T08:21:05;5.03;;;1.48;;
48647;SDS011;34437;-33.956;151.076;2022-12-17T08:23:46;3.08;;;1.50;;
48647;SDS011;34437;-33.956;151.076;2022-12-17T08:26:26;2.92;;;1.20;;
48647;SDS011;34437;-33.956;151.076;2022-12-17T08:29:07;3.97;;;1.30;;
48647;SDS011;34437;-33.956;151.076;2022-12-17T08:31:50;3.40;;;1.25;;
48647;SDS011;34437;-33.956;151.076;2022-12-17T08:34:30;5.93;;;1.63;;
48647;SDS011;34437;-33.956;151.076;2022-12-17T08:37:11;3.97;;;1.33;;
48647;SDS011;34437;-33.956;151.076;2022-12-17T08:39:51;2.83;;;1.30;;
48647;SDS011;34437;-33.956;151.076;2022-12-17T08:42:32;4.72;;;1.42;;
48647;SDS011;34437;-33.956;151.076;2022-12-17T08:45:12;3.97;;;1.38;;
48647;SDS011;34437;-33.956;151.076;2022-12-17T08:48:00;2.53;;;1.20;;
48647;SDS011;34437;-33.956;151.076;2022-12-17T08:50:45;5.20;;;1.55;;
48647;SDS011;34437;-33.956;151.076;2022-12-17T08:53:25;3.40;;;1.45;;
48647;SDS011;34437;-33.956;151.076;2022-12-17T08:56:06;5.07;;;1.60;;
48647;SDS011;34437;-33.956;151.076;2022-12-17T08:58:53;3.67;;;1.17;;
48647;SDS011;34437;-33.956;151.076;2022-12-17T09:03:09;4.72;;;1.70;;
48647;SDS011;34437;-33.956;151.076;2022-12-17T09:05:51;4.95;;;1.23;;
48647;SDS011;34437;-33.956;151.076;2022-12-17T09:08:39;4.90;;;1.42;;
48647;SDS011;34437;-33.956;151.076;2022-12-17T09:11:19;4.78;;;1.48;;
48647;SDS011;34437;-33.956;151.076;2022-12-17T09:14:00;4.07;;;1.48;;
48647;SDS011;34437;-33.956;151.076;2022-12-17T09:16:40;4.75;;;1.80;;
48647;SDS011;34437;-33.956;151.076;2022-12-17T09:19:21;4.00;;;2.00;;
48647;SDS011;34437;-33.956;151.076;2022-12-17T09:22:01;4.60;;;1.67;;
48647;SDS011;34437;-33.956;151.076;2022-12-17T09:24:42;6.47;;;1.80;;
48647;SDS011;34437;-33.956;151.076;2022-12-17T09:27:23;6.60;;;1.80;;
48647;SDS011;34437;-33.956;151.076;2022-12-17T09:30:03;5.47;;;1.83;;
48647;SDS011;34437;-33.956;151.076;2022-12-17T09:32:45;4.22;;;1.27;;
48647;SDS011;34437;-33.956;151.076;2022-12-17T09:35:25;4.72;;;2.20;;
48647;SDS011;34437;-33.956;151.076;2022-12-17T09:38:06;6.70;;;2.10;;
48647;SDS011;34437;-33.956;151.076;2022-12-17T09:40:49;4.40;;;1.63;;
48647;SDS011;34437;-33.956;151.076;2022-12-17T09:46:35;5.55;;;1.70;;
48647;SDS011;34437;-33.956;151.076;2022-12-17T09:49:21;5.60;;;1.70;;
48647;SDS011;34437;-33.956;151.076;2022-12-17T09:52:23;4.32;;;2.08;;
48647;SDS011;34437;-33.956;151.076;2022-12-17T09:55:13;5.72;;;2.00;;
48647;SDS011;34437;-33.956;151.076;2022-12-17T09:58:04;5.30;;;2.03;;
48647;SDS011;34437;-33.956;151.076;2022-12-17T10:00:55;5.57;;;1.88;;
48647;SDS011;34437;-33.956;151.076;2022-12-17T10:03:37;5.75;;;1.90;;
48647;SDS011;34437;-33.956;151.076;2022-12-17T10:06:23;5.03;;;1.75;;
48647;SDS011;34437;-33.956;151.076;2022-12-17T10:15:50;4.30;;;1.80;;
48647;SDS011;34437;-33.956;151.076;2022-12-17T10:18:32;4.70;;;1.85;;
48647;SDS011;34437;-33.956;151.076;2022-12-17T10:21:13;4.00;;;1.52;;
48647;SDS011;34437;-33.956;151.076;2022-12-17T10:24:06;5.20;;;1.73;;
48647;SDS011;34437;-33.956;151.076;2022-12-17T10:26:48;3.20;;;1.58;;
48647;SDS011;34437;-33.956;151.076;2022-12-17T10:29:36;5.90;;;1.88;;
48647;SDS011;34437;-33.956;151.076;2022-12-17T10:32:23;5.78;;;1.98;;
48647;SDS011;34437;-33.956;151.076;2022-12-17T10:35:12;3.83;;;1.58;;
48647;SDS011;34437;-33.956;151.076;2022-12-17T10:37:56;5.03;;;1.98;;
48647;SDS011;34437;-33.956;151.076;2022-12-17T10:40:39;4.38;;;1.27;;
48647;SDS011;34437;-33.956;151.076;2022-12-17T10:43:37;5.82;;;2.30;;
48647;SDS011;34437;-33.956;151.076;2022-12-17T10:46:28;3.40;;;1.40;;
48647;SDS011;34437;-33.956;151.076;2022-12-17T10:49:14;5.70;;;1.63;;
48647;SDS011;34437;-33.956;151.076;2022-12-17T10:52:01;4.57;;;1.50;;
48647;SDS011;34437;-33.956;151.076;2022-12-17T10:54:58;7.38;;;1.73;;
48647;SDS011;34437;-33.956;151.076;2022-12-17T10:57:40;3.03;;;1.30;;
48647;SDS011;34437;-33.956;151.076;2022-12-17T11:00:24;3.53;;;1.40;;
48647;SDS011;34437;-33.956;151.076;2022-12-17T11:06:28;4.40;;;1.40;;
48647;SDS011;34437;-33.956;151.076;2022-12-17T11:18:27;2.45;;;1.10;;
48647;SDS011;34437;-33.956;151.076;2022-12-17T11:21:20;3.10;;;1.30;;
48647;SDS011;34437;-33.956;151.076;2022-12-17T11:24:09;2.30;;;1.17;;
48647;SDS011;34437;-33.956;151.076;2022-12-17T11:27:15;7.35;;;2.03;;
48647;SDS011;34437;-33.956;151.076;2022-12-17T11:30:12;4.55;;;1.80;;
48647;SDS011;34437;-33.956;151.076;2022-12-17T11:33:00;3.53;;;1.20;;
48647;SDS011;34437;-33.956;151.076;2022-12-17T11:38:50;3.90;;;1.23;;
48647;SDS011;34437;-33.956;151.076;2022-12-17T11:41:50;4.78;;;1.55;;
48647;SDS011;34437;-33.956;151.076;2022-12-17T11:44:51;4.20;;;1.63;;
48647;SDS011;34437;-33.956;151.076;2022-12-17T11:50:46;3.78;;;1.77;;
48647;SDS011;34437;-33.956;151.076;2022-12-17T11:53:44;3.25;;;1.35;;
48647;SDS011;34437;-33.956;151.076;2022-12-17T11:56:51;4.72;;;1.40;;
48647;SDS011;34437;-33.956;151.076;2022-12-17T11:59:38;3.78;;;1.75;;
48647;SDS011;34437;-33.956;151.076;2022-12-17T12:03:03;4.18;;;1.48;;
48647;SDS011;34437;-33.956;151.076;2022-12-17T12:05:46;5.18;;;1.58;;
48647;SDS011;34437;-33.956;151.076;2022-12-17T12:08:36;6.15;;;1.67;;
48647;SDS011;34437;-33.956;151.076;2022-12-17T12:11:49;4.95;;;1.65;;
48647;SDS011;34437;-33.956;151.076;2022-12-17T12:26:26;4.28;;;1.70;;
48647;SDS011;34437;-33.956;151.076;2022-12-17T12:35:22;3.25;;;1.40;;
48647;SDS011;34437;-33.956;151.076;2022-12-17T12:38:04;4.57;;;1.48;;
48647;SDS011;34437;-33.956;151.076;2022-12-17T12:41:00;6.65;;;1.80;;
48647;SDS011;34437;-33.956;151.076;2022-12-17T12:44:06;4.55;;;1.67;;
48647;SDS011;34437;-33.956;151.076;2022-12-17T12:47:01;3.25;;;1.65;;
48647;SDS011;34437;-33.956;151.076;2022-12-17T12:50:07;4.43;;;1.70;;
48647;SDS011;34437;-33.956;151.076;2022-12-17T12:53:11;3.13;;;1.70;;
48647;SDS011;34437;-33.956;151.076;2022-12-17T12:55:52;3.13;;;1.30;;
48647;SDS011;34437;-33.956;151.076;2022-12-17T12:58:33;4.32;;;1.35;;
48647;SDS011;34437;-33.956;151.076;2022-12-17T13:01:14;4.47;;;1.35;;
48647;SDS011;34437;-33.956;151.076;2022-12-17T13:03:56;4.63;;;1.85;;
48647;SDS011;34437;-33.956;151.076;2022-12-17T13:06:49;4.85;;;1.75;;
48647;SDS011;34437;-33.956;151.076;2022-12-17T13:11:36;4.15;;;1.40;;
48647;SDS011;34437;-33.956;151.076;2022-12-17T13:13:59;4.70;;;1.13;;
48647;SDS011;34437;-33.956;151.076;2022-12-17T13:16:30;5.05;;;1.60;;
48647;SDS011;34437;-33.956;151.076;2022-12-17T13:19:20;7.57;;;2.17;;
48647;SDS011;34437;-33.956;151.076;2022-12-17T13:21:52;3.45;;;1.02;;
48647;SDS011;34437;-33.956;151.076;2022-12-17T13:24:24;3.85;;;1.27;;
48647;SDS011;34437;-33.956;151.076;2022-12-17T13:26:47;4.88;;;1.45;;
48647;SDS011;34437;-33.956;151.076;2022-12-17T13:29:26;3.90;;;1.40;;
48647;SDS011;34437;-33.956;151.076;2022-12-17T13:32:13;5.15;;;1.65;;
48647;SDS011;34437;-33.956;151.076;2022-12-17T13:42:35;5.28;;;1.67;;
48647;SDS011;34437;-33.956;151.076;2022-12-17T13:44:58;3.05;;;1.17;;
48647;SDS011;34437;-33.956;151.076;2022-12-17T13:47:22;4.15;;;1.45;;
48647;SDS011;34437;-33.956;151.076;2022-12-17T13:49:55;3.90;;;1.23;;
48647;SDS011;34437;-33.956;151.076;2022-12-17T13:52:20;5.43;;;1.30;;
48647;SDS011;34437;-33.956;151.076;2022-12-17T13:54:46;2.35;;;1.35;;
48647;SDS011;34437;-33.956;151.076;2022-12-17T13:57:09;5.38;;;1.40;;
48647;SDS011;34437;-33.956;151.076;2022-12-17T13:59:36;4.35;;;1.10;;
48647;SDS011;34437;-33.956;151.076;2022-12-17T14:01:59;2.55;;;1.00;;
48647;SDS011;34437;-33.956;151.076;2022-12-17T14:04:22;4.78;;;1.38;;
48647;SDS011;34437;-33.956;151.076;2022-12-17T14:06:46;5.88;;;1.40;;
48647;SDS011;34437;-33.956;151.076;2022-12-17T14:09:14;4.72;;;1.30;;
48647;SDS011;34437;-33.956;151.076;2022-12-17T14:11:38;2.55;;;0.90;;
48647;SDS011;34437;-33.956;151.076;2022-12-17T14:14:27;3.42;;;1.00;;
48647;SDS011;34437;-33.956;151.076;2022-12-17T14:16:58;3.25;;;1.10;;
48647;SDS011;34437;-33.956;151.076;2022-12-17T14:19:22;2.67;;;1.43;;
48647;SDS011;34437;-33.956;151.076;2022-12-17T14:21:45;4.38;;;1.30;;
48647;SDS011;34437;-33.956;151.076;2022-12-17T14:24:10;2.85;;;1.27;;
48647;SDS011;34437;-33.956;151.076;2022-12-17T14:26:34;4.60;;;1.10;;
48647;SDS011;34437;-33.956;151.076;2022-12-17T14:32:25;3.25;;;1.20;;
48647;SDS011;34437;-33.956;151.076;2022-12-17T14:34:53;3.20;;;0.90;;
48647;SDS011;34437;-33.956;151.076;2022-12-17T14:37:16;3.15;;;1.15;;
48647;SDS011;34437;-33.956;151.076;2022-12-17T14:39:45;1.98;;;0.80;;
48647;SDS011;34437;-33.956;151.076;2022-12-17T14:42:14;2.88;;;0.85;;
48647;SDS011;34437;-33.956;151.076;2022-12-17T14:44:49;2.50;;;1.10;;
48647;SDS011;34437;-33.956;151.076;2022-12-17T14:47:57;3.25;;;1.42;;
48647;SDS011;34437;-33.956;151.076;2022-12-17T14:50:25;2.70;;;1.00;;
48647;SDS011;34437;-33.956;151.076;2022-12-17T14:52:55;3.63;;;1.20;;
48647;SDS011;34437;-33.956;151.076;2022-12-17T14:58:05;1.70;;;0.77;;
48647;SDS011;34437;-33.956;151.076;2022-12-17T15:00:44;2.08;;;0.88;;
48647;SDS011;34437;-33.956;151.076;2022-12-17T15:03:16;2.25;;;0.90;;
48647;SDS011;34437;-33.956;151.076;2022-12-17T15:05:50;2.67;;;0.90;;
48647;SDS011;34437;-33.956;151.076;2022-12-17T15:08:17;4.20;;;1.00;;
48647;SDS011;34437;-33.956;151.076;2022-12-17T15:10:40;2.47;;;0.90;;
48647;SDS011;34437;-33.956;151.076;2022-12-17T15:13:02;1.85;;;0.95;;
48647;SDS011;34437;-33.956;151.076;2022-12-17T15:15:25;2.22;;;0.93;;
48647;SDS011;34437;-33.956;151.076;2022-12-17T15:17:49;2.20;;;0.82;;
48647;SDS011;34437;-33.956;151.076;2022-12-17T15:20:14;1.45;;;0.73;;
48647;SDS011;34437;-33.956;151.076;2022-12-17T15:22:38;1.75;;;0.80;;
48647;SDS011;34437;-33.956;151.076;2022-12-17T15:25:01;3.30;;;1.00;;
48647;SDS011;34437;-33.956;151.076;2022-12-17T15:27:24;4.43;;;0.70;;
48647;SDS011;34437;-33.956;151.076;2022-12-17T15:29:47;3.03;;;0.90;;
48647;SDS011;34437;-33.956;151.076;2022-12-17T15:32:19;3.33;;;0.70;;
48647;SDS011;34437;-33.956;151.076;2022-12-17T15:34:43;0.85;;;0.50;;
48647;SDS011;34437;-33.956;151.076;2022-12-17T15:37:06;1.42;;;0.60;;
48647;SDS011;34437;-33.956;151.076;2022-12-17T15:39:29;1.00;;;0.68;;
48647;SDS011;34437;-33.956;151.076;2022-12-17T15:41:51;5.43;;;1.38;;
48647;SDS011;34437;-33.956;151.076;2022-12-17T15:44:32;2.05;;;0.80;;
48647;SDS011;34437;-33.956;151.076;2022-12-17T15:46:55;2.53;;;1.00;;
48647;SDS011;34437;-33.956;151.076;2022-12-17T15:49:17;2.55;;;1.30;;
48647;SDS011;34437;-33.956;151.076;2022-12-17T15:51:41;2.25;;;1.00;;
48647;SDS011;34437;-33.956;151.076;2022-12-17T15:54:03;1.75;;;0.90;;
48647;SDS011;34437;-33.956;151.076;2022-12-17T15:56:26;2.28;;;0.93;;
48647;SDS011;34437;-33.956;151.076;2022-12-17T15:58:49;1.98;;;0.40;;
48647;SDS011;34437;-33.956;151.076;2022-12-17T16:01:12;3.15;;;0.68;;
48647;SDS011;34437;-33.956;151.076;2022-12-17T16:03:35;3.20;;;0.98;;
48647;SDS011;34437;-33.956;151.076;2022-12-17T16:05:59;2.80;;;1.05;;
48647;SDS011;34437;-33.956;151.076;2022-12-17T16:08:22;3.58;;;0.70;;
48647;SDS011;34437;-33.956;151.076;2022-12-17T16:10:44;2.38;;;0.73;;
48647;SDS011;34437;-33.956;151.076;2022-12-17T16:13:07;2.13;;;0.70;;
48647;SDS011;34437;-33.956;151.076;2022-12-17T16:15:29;2.92;;;0.95;;
48647;SDS011;34437;-33.956;151.076;2022-12-17T16:17:52;2.85;;;0.80;;
48647;SDS011;34437;-33.956;151.076;2022-12-17T16:20:15;2.65;;;0.90;;
48647;SDS011;34437;-33.956;151.076;2022-12-17T16:22:37;1.98;;;0.77;;
48647;SDS011;34437;-33.956;151.076;2022-12-17T16:25:00;3.70;;;1.00;;
48647;SDS011;34437;-33.956;151.076;2022-12-17T16:27:23;1.73;;;0.73;;
48647;SDS011;34437;-33.956;151.076;2022-12-17T16:29:45;1.80;;;0.90;;
48647;SDS011;34437;-33.956;151.076;2022-12-17T16:32:08;1.38;;;0.70;;
48647;SDS011;34437;-33.956;151.076;2022-12-17T16:34:31;3.65;;;1.35;;
48647;SDS011;34437;-33.956;151.076;2022-12-17T16:36:53;3.83;;;0.85;;
48647;SDS011;34437;-33.956;151.076;2022-12-17T16:39:17;4.68;;;1.20;;
48647;SDS011;34437;-33.956;151.076;2022-12-17T16:41:40;2.42;;;0.93;;
48647;SDS011;34437;-33.956;151.076;2022-12-17T16:44:03;4.15;;;1.00;;
48647;SDS011;34437;-33.956;151.076;2022-12-17T16:46:29;2.10;;;0.93;;